sensor_id;sensor_type;location;lat;lon;timestamp;P1;durP1;ratioP1;P2;durP2;ratioP2
10653;SDS011;5375;51.250;6.776;2023-09-30T00:01:20;4.18;;;2.17;;
10653;SDS011;5375;51.250;6.776;2023-09-30T00:03:47;3.95;;;2.20;;
10653;SDS011;5375;51.250;6.776;2023-09-30T00:06:13;5.22;;;2.00;;
10653;SDS011;5375;51.250;6.776;2023-09-30T00:08:39;3.40;;;1.85;;
10653;SDS011;5375;51.250;6.776;2023-09-30T00:11:06;4.60;;;2.15;;
10653;SDS011;5375;51.250;6.776;2023-09-30T00:13:32;3.50;;;1.88;;
10653;SDS011;5375;51.250;6.776;2023-09-30T00:15:59;5.78;;;2.40;;
10653;SDS011;5375;51.250;6.776;2023-09-30T00:18:25;4.55;;;2.30;;
10653;SDS011;5375;51.250;6.776;2023-09-30T00:20:52;4.28;;;2.20;;
10653;SDS011;5375;51.250;6.776;2023-09-30T00:23:18;3.78;;;2.10;;
10653;SDS011;5375;51.250;6.776;2023-09-30T00:25:46;4.85;;;2.45;;
10653;SDS011;5375;51.250;6.776;2023-09-30T00:28:12;4.63;;;2.40;;
10653;SDS011;5375;51.250;6.776;2023-09-30T00:30:39;4.93;;;2.10;;
10653;SDS011;5375;51.250;6.776;2023-09-30T00:33:10;4.03;;;2.10;;
10653;SDS011;5375;51.250;6.776;2023-09-30T00:35:37;5.95;;;2.55;;
10653;SDS011;5375;51.250;6.776;2023-09-30T00:38:02;5.40;;;2.47;;
10653;SDS011;5375;51.250;6.776;2023-09-30T00:40:28;4.72;;;2.58;;
10653;SDS011;5375;51.250;6.776;2023-09-30T00:42:54;4.13;;;2.38;;
10653;SDS011;5375;51.250;6.776;2023-09-30T00:45:21;4.30;;;2.10;;
10653;SDS011;5375;51.250;6.776;2023-09-30T00:47:47;5.40;;;2.42;;
10653;SDS011;5375;51.250;6.776;2023-09-30T00:50:13;6.75;;;2.30;;
10653;SDS011;5375;51.250;6.776;2023-09-30T00:52:39;4.05;;;2.33;;
10653;SDS011;5375;51.250;6.776;2023-09-30T00:55:06;4.13;;;1.92;;
10653;SDS011;5375;51.250;6.776;2023-09-30T00:57:33;4.57;;;2.50;;
10653;SDS011;5375;51.250;6.776;2023-09-30T00:59:59;3.55;;;1.85;;
10653;SDS011;5375;51.250;6.776;2023-09-30T01:02:26;4.40;;;2.35;;
10653;SDS011;5375;51.250;6.776;2023-09-30T01:04:52;4.40;;;2.00;;
10653;SDS011;5375;51.250;6.776;2023-09-30T01:07:18;2.80;;;1.98;;
10653;SDS011;5375;51.250;6.776;2023-09-30T01:09:46;3.33;;;2.25;;
10653;SDS011;5375;51.250;6.776;2023-09-30T01:12:13;4.53;;;2.20;;
10653;SDS011;5375;51.250;6.776;2023-09-30T01:14:39;4.28;;;2.10;;
10653;SDS011;5375;51.250;6.776;2023-09-30T01:17:07;4.60;;;2.00;;
10653;SDS011;5375;51.250;6.776;2023-09-30T01:19:38;5.35;;;2.35;;
10653;SDS011;5375;51.250;6.776;2023-09-30T01:22:04;4.43;;;2.03;;
10653;SDS011;5375;51.250;6.776;2023-09-30T01:24:40;4.88;;;2.20;;
10653;SDS011;5375;51.250;6.776;2023-09-30T01:27:07;4.50;;;2.40;;
10653;SDS011;5375;51.250;6.776;2023-09-30T01:29:34;4.43;;;2.50;;
10653;SDS011;5375;51.250;6.776;2023-09-30T01:32:01;5.63;;;2.35;;
10653;SDS011;5375;51.250;6.776;2023-09-30T01:34:30;5.32;;;2.60;;
10653;SDS011;5375;51.250;6.776;2023-09-30T01:36:56;3.67;;;2.10;;
10653;SDS011;5375;51.250;6.776;2023-09-30T01:39:22;4.22;;;2.22;;
10653;SDS011;5375;51.250;6.776;2023-09-30T01:41:48;4.70;;;2.60;;
10653;SDS011;5375;51.250;6.776;2023-09-30T01:44:14;5.15;;;2.47;;
10653;SDS011;5375;51.250;6.776;2023-09-30T01:46:40;4.75;;;2.20;;
10653;SDS011;5375;51.250;6.776;2023-09-30T01:49:06;3.85;;;2.13;;
10653;SDS011;5375;51.250;6.776;2023-09-30T01:51:32;4.35;;;2.55;;
10653;SDS011;5375;51.250;6.776;2023-09-30T01:53:58;3.55;;;2.10;;
10653;SDS011;5375;51.250;6.776;2023-09-30T01:56:24;5.35;;;2.10;;
10653;SDS011;5375;51.250;6.776;2023-09-30T01:58:50;3.20;;;2.03;;
10653;SDS011;5375;51.250;6.776;2023-09-30T02:01:16;3.97;;;2.03;;
10653;SDS011;5375;51.250;6.776;2023-09-30T02:03:42;4.40;;;2.65;;
10653;SDS011;5375;51.250;6.776;2023-09-30T02:06:08;7.55;;;2.67;;
10653;SDS011;5375;51.250;6.776;2023-09-30T02:08:35;5.97;;;2.50;;
10653;SDS011;5375;51.250;6.776;2023-09-30T02:11:01;5.60;;;2.38;;
10653;SDS011;5375;51.250;6.776;2023-09-30T02:13:28;5.40;;;2.20;;
10653;SDS011;5375;51.250;6.776;2023-09-30T02:15:54;5.75;;;2.17;;
10653;SDS011;5375;51.250;6.776;2023-09-30T02:18:21;9.63;;;2.30;;
10653;SDS011;5375;51.250;6.776;2023-09-30T02:20:48;7.03;;;2.40;;
10653;SDS011;5375;51.250;6.776;2023-09-30T02:23:15;6.20;;;2.20;;
10653;SDS011;5375;51.250;6.776;2023-09-30T02:25:42;6.65;;;2.63;;
10653;SDS011;5375;51.250;6.776;2023-09-30T02:28:09;4.57;;;1.90;;
10653;SDS011;5375;51.250;6.776;2023-09-30T02:30:35;5.75;;;2.28;;
10653;SDS011;5375;51.250;6.776;2023-09-30T02:33:02;8.27;;;2.55;;
10653;SDS011;5375;51.250;6.776;2023-09-30T02:35:31;6.18;;;2.25;;
10653;SDS011;5375;51.250;6.776;2023-09-30T02:37:57;4.15;;;2.20;;
10653;SDS011;5375;51.250;6.776;2023-09-30T02:40:24;4.45;;;2.28;;
10653;SDS011;5375;51.250;6.776;2023-09-30T02:42:50;4.88;;;2.35;;
10653;SDS011;5375;51.250;6.776;2023-09-30T02:45:17;4.43;;;2.38;;
10653;SDS011;5375;51.250;6.776;2023-09-30T02:47:43;4.00;;;2.30;;
10653;SDS011;5375;51.250;6.776;2023-09-30T02:50:09;4.60;;;2.05;;
10653;SDS011;5375;51.250;6.776;2023-09-30T02:52:41;3.53;;;1.83;;
10653;SDS011;5375;51.250;6.776;2023-09-30T02:55:08;3.88;;;1.83;;
10653;SDS011;5375;51.250;6.776;2023-09-30T02:57:34;5.88;;;2.38;;
10653;SDS011;5375;51.250;6.776;2023-09-30T03:00:02;3.25;;;2.22;;
10653;SDS011;5375;51.250;6.776;2023-09-30T03:02:37;3.95;;;1.80;;
10653;SDS011;5375;51.250;6.776;2023-09-30T03:05:03;3.90;;;1.90;;
10653;SDS011;5375;51.250;6.776;2023-09-30T03:07:29;5.75;;;2.28;;
10653;SDS011;5375;51.250;6.776;2023-09-30T03:09:58;3.80;;;2.05;;
10653;SDS011;5375;51.250;6.776;2023-09-30T03:12:26;5.63;;;2.47;;
10653;SDS011;5375;51.250;6.776;2023-09-30T03:14:52;5.85;;;1.98;;
10653;SDS011;5375;51.250;6.776;2023-09-30T03:17:18;5.25;;;2.42;;
10653;SDS011;5375;51.250;6.776;2023-09-30T03:19:44;5.35;;;2.35;;
10653;SDS011;5375;51.250;6.776;2023-09-30T03:22:10;4.00;;;2.53;;
10653;SDS011;5375;51.250;6.776;2023-09-30T03:24:38;2.92;;;1.80;;
10653;SDS011;5375;51.250;6.776;2023-09-30T03:27:04;5.50;;;2.50;;
10653;SDS011;5375;51.250;6.776;2023-09-30T03:29:30;4.93;;;2.28;;
10653;SDS011;5375;51.250;6.776;2023-09-30T03:31:56;4.22;;;1.80;;
10653;SDS011;5375;51.250;6.776;2023-09-30T03:34:22;4.03;;;1.98;;
10653;SDS011;5375;51.250;6.776;2023-09-30T03:36:48;5.05;;;2.10;;
10653;SDS011;5375;51.250;6.776;2023-09-30T03:39:14;5.32;;;2.05;;
10653;SDS011;5375;51.250;6.776;2023-09-30T03:41:40;6.90;;;2.65;;
10653;SDS011;5375;51.250;6.776;2023-09-30T03:44:12;4.35;;;2.05;;
10653;SDS011;5375;51.250;6.776;2023-09-30T03:46:39;5.50;;;2.50;;
10653;SDS011;5375;51.250;6.776;2023-09-30T03:49:05;4.07;;;2.20;;
10653;SDS011;5375;51.250;6.776;2023-09-30T03:51:33;4.68;;;2.00;;
10653;SDS011;5375;51.250;6.776;2023-09-30T03:54:02;8.30;;;2.42;;
10653;SDS011;5375;51.250;6.776;2023-09-30T03:56:28;7.78;;;2.00;;
10653;SDS011;5375;51.250;6.776;2023-09-30T03:58:54;7.93;;;2.30;;
10653;SDS011;5375;51.250;6.776;2023-09-30T04:01:20;4.43;;;2.05;;
10653;SDS011;5375;51.250;6.776;2023-09-30T04:03:46;5.25;;;2.00;;
10653;SDS011;5375;51.250;6.776;2023-09-30T04:06:12;4.80;;;1.95;;
10653;SDS011;5375;51.250;6.776;2023-09-30T04:08:38;4.45;;;2.10;;
10653;SDS011;5375;51.250;6.776;2023-09-30T04:11:04;5.03;;;2.47;;
10653;SDS011;5375;51.250;6.776;2023-09-30T04:13:30;8.10;;;2.40;;
10653;SDS011;5375;51.250;6.776;2023-09-30T04:15:56;3.53;;;2.17;;
10653;SDS011;5375;51.250;6.776;2023-09-30T04:18:25;4.35;;;1.95;;
10653;SDS011;5375;51.250;6.776;2023-09-30T04:20:52;5.20;;;1.83;;
10653;SDS011;5375;51.250;6.776;2023-09-30T04:23:18;4.47;;;2.13;;
10653;SDS011;5375;51.250;6.776;2023-09-30T04:25:47;5.15;;;2.20;;
10653;SDS011;5375;51.250;6.776;2023-09-30T04:28:14;3.50;;;1.88;;
10653;SDS011;5375;51.250;6.776;2023-09-30T04:30:44;4.22;;;2.10;;
10653;SDS011;5375;51.250;6.776;2023-09-30T04:33:10;3.72;;;2.00;;
10653;SDS011;5375;51.250;6.776;2023-09-30T04:35:38;3.83;;;1.98;;
10653;SDS011;5375;51.250;6.776;2023-09-30T04:38:04;3.67;;;2.05;;
10653;SDS011;5375;51.250;6.776;2023-09-30T04:40:31;4.85;;;2.22;;
10653;SDS011;5375;51.250;6.776;2023-09-30T04:42:58;3.92;;;1.95;;
10653;SDS011;5375;51.250;6.776;2023-09-30T04:45:25;3.97;;;1.92;;
10653;SDS011;5375;51.250;6.776;2023-09-30T04:47:54;4.45;;;1.92;;
10653;SDS011;5375;51.250;6.776;2023-09-30T04:50:21;6.18;;;1.92;;
10653;SDS011;5375;51.250;6.776;2023-09-30T04:52:47;3.95;;;1.70;;
10653;SDS011;5375;51.250;6.776;2023-09-30T04:55:13;5.85;;;1.90;;
10653;SDS011;5375;51.250;6.776;2023-09-30T04:57:41;4.22;;;2.25;;
10653;SDS011;5375;51.250;6.776;2023-09-30T05:00:09;3.90;;;2.05;;
10653;SDS011;5375;51.250;6.776;2023-09-30T05:02:36;2.30;;;1.60;;
10653;SDS011;5375;51.250;6.776;2023-09-30T05:05:04;3.65;;;2.05;;
10653;SDS011;5375;51.250;6.776;2023-09-30T05:07:31;3.58;;;1.67;;
10653;SDS011;5375;51.250;6.776;2023-09-30T05:09:57;3.78;;;1.90;;
10653;SDS011;5375;51.250;6.776;2023-09-30T05:12:24;5.43;;;1.95;;
10653;SDS011;5375;51.250;6.776;2023-09-30T05:14:50;3.88;;;1.90;;
10653;SDS011;5375;51.250;6.776;2023-09-30T05:17:17;4.60;;;1.75;;
10653;SDS011;5375;51.250;6.776;2023-09-30T05:19:43;4.00;;;1.95;;
10653;SDS011;5375;51.250;6.776;2023-09-30T05:22:09;5.75;;;2.13;;
10653;SDS011;5375;51.250;6.776;2023-09-30T05:24:35;5.45;;;2.38;;
10653;SDS011;5375;51.250;6.776;2023-09-30T05:27:01;3.92;;;1.90;;
10653;SDS011;5375;51.250;6.776;2023-09-30T05:29:28;3.38;;;1.70;;
10653;SDS011;5375;51.250;6.776;2023-09-30T05:31:54;3.97;;;2.10;;
10653;SDS011;5375;51.250;6.776;2023-09-30T05:34:21;4.85;;;1.90;;
10653;SDS011;5375;51.250;6.776;2023-09-30T05:36:47;3.53;;;2.05;;
10653;SDS011;5375;51.250;6.776;2023-09-30T05:39:13;2.67;;;1.67;;
10653;SDS011;5375;51.250;6.776;2023-09-30T05:41:44;3.63;;;2.08;;
10653;SDS011;5375;51.250;6.776;2023-09-30T05:44:10;3.35;;;1.90;;
10653;SDS011;5375;51.250;6.776;2023-09-30T05:46:36;3.25;;;1.88;;
10653;SDS011;5375;51.250;6.776;2023-09-30T05:49:03;3.80;;;1.90;;
10653;SDS011;5375;51.250;6.776;2023-09-30T05:51:34;3.85;;;1.80;;
10653;SDS011;5375;51.250;6.776;2023-09-30T05:54:00;2.40;;;1.60;;
10653;SDS011;5375;51.250;6.776;2023-09-30T05:56:26;4.32;;;1.70;;
10653;SDS011;5375;51.250;6.776;2023-09-30T05:58:52;4.35;;;2.00;;
10653;SDS011;5375;51.250;6.776;2023-09-30T06:01:19;2.95;;;1.63;;
10653;SDS011;5375;51.250;6.776;2023-09-30T06:03:46;3.58;;;1.80;;
10653;SDS011;5375;51.250;6.776;2023-09-30T06:06:12;3.67;;;1.98;;
10653;SDS011;5375;51.250;6.776;2023-09-30T06:08:40;2.92;;;1.60;;
10653;SDS011;5375;51.250;6.776;2023-09-30T06:11:07;3.72;;;1.67;;
10653;SDS011;5375;51.250;6.776;2023-09-30T06:13:33;5.75;;;1.70;;
10653;SDS011;5375;51.250;6.776;2023-09-30T06:15:59;2.90;;;1.80;;
10653;SDS011;5375;51.250;6.776;2023-09-30T06:18:25;2.80;;;1.58;;
10653;SDS011;5375;51.250;6.776;2023-09-30T06:20:51;3.20;;;1.90;;
10653;SDS011;5375;51.250;6.776;2023-09-30T06:23:17;3.78;;;1.63;;
10653;SDS011;5375;51.250;6.776;2023-09-30T06:25:43;4.47;;;1.88;;
10653;SDS011;5375;51.250;6.776;2023-09-30T06:28:09;2.60;;;1.48;;
10653;SDS011;5375;51.250;6.776;2023-09-30T06:30:36;3.22;;;1.80;;
10653;SDS011;5375;51.250;6.776;2023-09-30T06:33:02;4.93;;;1.85;;
10653;SDS011;5375;51.250;6.776;2023-09-30T06:35:30;4.40;;;1.80;;
10653;SDS011;5375;51.250;6.776;2023-09-30T06:37:59;3.42;;;1.67;;
10653;SDS011;5375;51.250;6.776;2023-09-30T06:40:26;2.90;;;1.60;;
10653;SDS011;5375;51.250;6.776;2023-09-30T06:42:52;3.85;;;1.90;;
10653;SDS011;5375;51.250;6.776;2023-09-30T06:45:18;1.88;;;1.30;;
10653;SDS011;5375;51.250;6.776;2023-09-30T06:47:46;3.65;;;2.10;;
10653;SDS011;5375;51.250;6.776;2023-09-30T06:50:13;3.58;;;1.77;;
10653;SDS011;5375;51.250;6.776;2023-09-30T06:52:42;2.95;;;1.60;;
10653;SDS011;5375;51.250;6.776;2023-09-30T06:55:10;4.57;;;1.70;;
10653;SDS011;5375;51.250;6.776;2023-09-30T06:57:39;2.78;;;1.70;;
10653;SDS011;5375;51.250;6.776;2023-09-30T07:00:11;2.92;;;1.75;;
10653;SDS011;5375;51.250;6.776;2023-09-30T07:02:38;3.13;;;1.95;;
10653;SDS011;5375;51.250;6.776;2023-09-30T07:05:05;2.97;;;1.73;;
10653;SDS011;5375;51.250;6.776;2023-09-30T07:07:31;2.60;;;1.83;;
10653;SDS011;5375;51.250;6.776;2023-09-30T07:10:00;2.95;;;1.45;;
10653;SDS011;5375;51.250;6.776;2023-09-30T07:12:26;3.05;;;1.73;;
10653;SDS011;5375;51.250;6.776;2023-09-30T07:14:52;4.65;;;1.75;;
10653;SDS011;5375;51.250;6.776;2023-09-30T07:17:19;2.45;;;1.50;;
10653;SDS011;5375;51.250;6.776;2023-09-30T07:19:44;3.10;;;1.75;;
10653;SDS011;5375;51.250;6.776;2023-09-30T07:22:10;3.30;;;1.88;;
10653;SDS011;5375;51.250;6.776;2023-09-30T07:24:38;3.00;;;1.60;;
10653;SDS011;5375;51.250;6.776;2023-09-30T07:27:04;3.72;;;1.70;;
10653;SDS011;5375;51.250;6.776;2023-09-30T07:29:31;2.42;;;1.48;;
10653;SDS011;5375;51.250;6.776;2023-09-30T07:31:58;3.03;;;1.92;;
10653;SDS011;5375;51.250;6.776;2023-09-30T07:34:24;4.15;;;1.90;;
10653;SDS011;5375;51.250;6.776;2023-09-30T07:36:50;2.13;;;1.50;;
10653;SDS011;5375;51.250;6.776;2023-09-30T07:39:16;2.75;;;1.55;;
10653;SDS011;5375;51.250;6.776;2023-09-30T07:41:43;4.28;;;1.80;;
10653;SDS011;5375;51.250;6.776;2023-09-30T07:44:08;2.45;;;1.50;;
10653;SDS011;5375;51.250;6.776;2023-09-30T07:46:35;3.13;;;1.80;;
10653;SDS011;5375;51.250;6.776;2023-09-30T07:49:01;2.63;;;1.48;;
10653;SDS011;5375;51.250;6.776;2023-09-30T07:51:28;2.53;;;1.60;;
10653;SDS011;5375;51.250;6.776;2023-09-30T07:53:55;2.78;;;1.50;;
10653;SDS011;5375;51.250;6.776;2023-09-30T07:56:21;2.80;;;1.50;;
10653;SDS011;5375;51.250;6.776;2023-09-30T07:58:48;4.00;;;2.08;;
10653;SDS011;5375;51.250;6.776;2023-09-30T08:01:14;2.70;;;1.70;;
10653;SDS011;5375;51.250;6.776;2023-09-30T08:03:41;3.05;;;1.83;;
10653;SDS011;5375;51.250;6.776;2023-09-30T08:06:07;2.25;;;1.73;;
10653;SDS011;5375;51.250;6.776;2023-09-30T08:08:34;2.22;;;1.45;;
10653;SDS011;5375;51.250;6.776;2023-09-30T08:11:00;2.42;;;1.77;;
10653;SDS011;5375;51.250;6.776;2023-09-30T08:13:26;2.38;;;1.50;;
10653;SDS011;5375;51.250;6.776;2023-09-30T08:15:54;2.25;;;1.63;;
10653;SDS011;5375;51.250;6.776;2023-09-30T08:18:21;2.65;;;1.58;;
10653;SDS011;5375;51.250;6.776;2023-09-30T08:20:47;2.72;;;1.70;;
10653;SDS011;5375;51.250;6.776;2023-09-30T08:23:14;2.40;;;1.50;;
10653;SDS011;5375;51.250;6.776;2023-09-30T08:25:40;2.60;;;1.88;;
10653;SDS011;5375;51.250;6.776;2023-09-30T08:28:06;2.28;;;1.58;;
10653;SDS011;5375;51.250;6.776;2023-09-30T08:30:38;1.90;;;1.38;;
10653;SDS011;5375;51.250;6.776;2023-09-30T08:33:04;3.13;;;1.90;;
10653;SDS011;5375;51.250;6.776;2023-09-30T08:35:34;2.25;;;1.50;;
10653;SDS011;5375;51.250;6.776;2023-09-30T08:38:01;2.80;;;1.80;;
10653;SDS011;5375;51.250;6.776;2023-09-30T08:40:27;4.90;;;1.83;;
10653;SDS011;5375;51.250;6.776;2023-09-30T08:42:53;3.15;;;1.70;;
10653;SDS011;5375;51.250;6.776;2023-09-30T08:45:19;3.33;;;1.70;;
10653;SDS011;5375;51.250;6.776;2023-09-30T08:47:45;3.35;;;1.67;;
10653;SDS011;5375;51.250;6.776;2023-09-30T08:50:12;2.00;;;1.58;;
10653;SDS011;5375;51.250;6.776;2023-09-30T08:52:41;3.40;;;1.88;;
10653;SDS011;5375;51.250;6.776;2023-09-30T08:55:08;2.20;;;1.55;;
10653;SDS011;5375;51.250;6.776;2023-09-30T08:57:37;1.88;;;1.52;;
10653;SDS011;5375;51.250;6.776;2023-09-30T09:00:07;2.55;;;1.60;;
10653;SDS011;5375;51.250;6.776;2023-09-30T09:02:37;2.72;;;1.75;;
10653;SDS011;5375;51.250;6.776;2023-09-30T09:05:03;2.00;;;1.55;;
10653;SDS011;5375;51.250;6.776;2023-09-30T09:07:29;3.10;;;1.60;;
10653;SDS011;5375;51.250;6.776;2023-09-30T09:10:03;2.88;;;1.80;;
10653;SDS011;5375;51.250;6.776;2023-09-30T09:12:31;2.15;;;1.63;;
10653;SDS011;5375;51.250;6.776;2023-09-30T09:14:57;2.63;;;1.70;;
10653;SDS011;5375;51.250;6.776;2023-09-30T09:17:23;2.83;;;1.63;;
10653;SDS011;5375;51.250;6.776;2023-09-30T09:20:01;2.50;;;1.85;;
10653;SDS011;5375;51.250;6.776;2023-09-30T09:22:43;2.33;;;1.65;;
10653;SDS011;5375;51.250;6.776;2023-09-30T09:25:09;2.75;;;1.85;;
10653;SDS011;5375;51.250;6.776;2023-09-30T09:27:36;2.45;;;1.55;;
10653;SDS011;5375;51.250;6.776;2023-09-30T09:35:26;3.03;;;1.42;;
10653;SDS011;5375;51.250;6.776;2023-09-30T09:38:01;2.50;;;1.90;;
10653;SDS011;5375;51.250;6.776;2023-09-30T09:40:29;2.28;;;1.70;;
10653;SDS011;5375;51.250;6.776;2023-09-30T09:42:56;2.67;;;1.92;;
10653;SDS011;5375;51.250;6.776;2023-09-30T09:45:25;2.00;;;1.50;;
10653;SDS011;5375;51.250;6.776;2023-09-30T09:47:52;1.88;;;1.55;;
10653;SDS011;5375;51.250;6.776;2023-09-30T09:50:19;2.63;;;1.70;;
10653;SDS011;5375;51.250;6.776;2023-09-30T09:52:47;1.92;;;1.70;;
10653;SDS011;5375;51.250;6.776;2023-09-30T09:55:15;3.40;;;2.05;;
10653;SDS011;5375;51.250;6.776;2023-09-30T09:57:41;2.20;;;1.50;;
10653;SDS011;5375;51.250;6.776;2023-09-30T10:00:10;4.47;;;1.80;;
10653;SDS011;5375;51.250;6.776;2023-09-30T10:02:39;3.45;;;1.88;;
10653;SDS011;5375;51.250;6.776;2023-09-30T10:05:05;2.42;;;1.63;;
10653;SDS011;5375;51.250;6.776;2023-09-30T10:07:36;2.50;;;1.60;;
10653;SDS011;5375;51.250;6.776;2023-09-30T10:10:04;2.50;;;2.15;;
10653;SDS011;5375;51.250;6.776;2023-09-30T10:12:37;4.18;;;1.88;;
10653;SDS011;5375;51.250;6.776;2023-09-30T10:20:30;3.03;;;2.00;;
10653;SDS011;5375;51.250;6.776;2023-09-30T10:25:51;2.13;;;1.70;;
10653;SDS011;5375;51.250;6.776;2023-09-30T10:28:41;2.83;;;2.00;;
10653;SDS011;5375;51.250;6.776;2023-09-30T10:31:12;2.92;;;1.90;;
10653;SDS011;5375;51.250;6.776;2023-09-30T10:36:29;3.08;;;1.77;;
10653;SDS011;5375;51.250;6.776;2023-09-30T10:38:55;2.85;;;1.92;;
10653;SDS011;5375;51.250;6.776;2023-09-30T10:46:54;4.90;;;1.80;;
10653;SDS011;5375;51.250;6.776;2023-09-30T10:51:52;2.92;;;1.65;;
10653;SDS011;5375;51.250;6.776;2023-09-30T10:54:22;2.80;;;1.70;;
10653;SDS011;5375;51.250;6.776;2023-09-30T10:56:49;4.72;;;2.30;;
10653;SDS011;5375;51.250;6.776;2023-09-30T10:59:21;3.03;;;1.73;;
10653;SDS011;5375;51.250;6.776;2023-09-30T11:01:47;3.47;;;1.85;;
10653;SDS011;5375;51.250;6.776;2023-09-30T11:04:13;3.35;;;1.65;;
10653;SDS011;5375;51.250;6.776;2023-09-30T11:06:40;4.60;;;1.83;;
10653;SDS011;5375;51.250;6.776;2023-09-30T11:09:06;4.10;;;1.73;;
10653;SDS011;5375;51.250;6.776;2023-09-30T11:11:39;3.20;;;2.08;;
10653;SDS011;5375;51.250;6.776;2023-09-30T11:14:24;3.25;;;1.83;;
10653;SDS011;5375;51.250;6.776;2023-09-30T11:16:51;5.68;;;2.05;;
10653;SDS011;5375;51.250;6.776;2023-09-30T11:19:20;2.85;;;1.85;;
10653;SDS011;5375;51.250;6.776;2023-09-30T11:21:49;3.80;;;1.98;;
10653;SDS011;5375;51.250;6.776;2023-09-30T11:24:16;3.42;;;1.77;;
10653;SDS011;5375;51.250;6.776;2023-09-30T11:26:46;3.65;;;1.63;;
10653;SDS011;5375;51.250;6.776;2023-09-30T11:29:13;2.95;;;1.80;;
10653;SDS011;5375;51.250;6.776;2023-09-30T11:31:42;2.92;;;1.70;;
10653;SDS011;5375;51.250;6.776;2023-09-30T11:34:09;2.20;;;1.63;;
10653;SDS011;5375;51.250;6.776;2023-09-30T11:36:37;2.85;;;2.00;;
10653;SDS011;5375;51.250;6.776;2023-09-30T11:39:03;2.55;;;1.58;;
10653;SDS011;5375;51.250;6.776;2023-09-30T11:41:33;2.95;;;1.75;;
10653;SDS011;5375;51.250;6.776;2023-09-30T11:44:00;3.25;;;1.40;;
10653;SDS011;5375;51.250;6.776;2023-09-30T11:46:26;2.35;;;1.70;;
10653;SDS011;5375;51.250;6.776;2023-09-30T11:49:03;2.88;;;1.70;;
10653;SDS011;5375;51.250;6.776;2023-09-30T11:51:42;4.60;;;1.80;;
10653;SDS011;5375;51.250;6.776;2023-09-30T11:54:11;4.30;;;1.83;;
10653;SDS011;5375;51.250;6.776;2023-09-30T11:56:37;3.47;;;1.80;;
10653;SDS011;5375;51.250;6.776;2023-09-30T11:59:03;2.53;;;1.70;;
10653;SDS011;5375;51.250;6.776;2023-09-30T12:01:29;4.43;;;1.88;;
10653;SDS011;5375;51.250;6.776;2023-09-30T12:03:57;2.42;;;1.60;;
10653;SDS011;5375;51.250;6.776;2023-09-30T12:06:23;2.40;;;1.42;;
10653;SDS011;5375;51.250;6.776;2023-09-30T12:08:50;3.72;;;1.50;;
10653;SDS011;5375;51.250;6.776;2023-09-30T12:11:17;3.35;;;1.90;;
10653;SDS011;5375;51.250;6.776;2023-09-30T12:13:43;3.40;;;1.58;;
10653;SDS011;5375;51.250;6.776;2023-09-30T12:16:10;3.13;;;1.70;;
10653;SDS011;5375;51.250;6.776;2023-09-30T12:18:39;4.25;;;2.10;;
10653;SDS011;5375;51.250;6.776;2023-09-30T12:21:06;2.97;;;1.73;;
10653;SDS011;5375;51.250;6.776;2023-09-30T12:23:33;2.22;;;1.63;;
10653;SDS011;5375;51.250;6.776;2023-09-30T12:26:00;2.58;;;1.83;;
10653;SDS011;5375;51.250;6.776;2023-09-30T12:28:27;2.63;;;1.70;;
10653;SDS011;5375;51.250;6.776;2023-09-30T12:30:57;3.15;;;1.50;;
10653;SDS011;5375;51.250;6.776;2023-09-30T12:33:23;2.45;;;1.60;;
10653;SDS011;5375;51.250;6.776;2023-09-30T12:35:49;2.83;;;1.60;;
10653;SDS011;5375;51.250;6.776;2023-09-30T12:38:17;2.90;;;1.73;;
10653;SDS011;5375;51.250;6.776;2023-09-30T12:40:43;3.53;;;1.65;;
10653;SDS011;5375;51.250;6.776;2023-09-30T12:43:11;2.75;;;1.48;;
10653;SDS011;5375;51.250;6.776;2023-09-30T12:45:37;2.15;;;1.67;;
10653;SDS011;5375;51.250;6.776;2023-09-30T12:48:03;2.50;;;1.55;;
10653;SDS011;5375;51.250;6.776;2023-09-30T12:50:29;2.95;;;1.70;;
10653;SDS011;5375;51.250;6.776;2023-09-30T12:52:55;2.10;;;1.42;;
10653;SDS011;5375;51.250;6.776;2023-09-30T12:55:22;2.22;;;1.40;;
10653;SDS011;5375;51.250;6.776;2023-09-30T12:57:48;2.90;;;1.40;;
10653;SDS011;5375;51.250;6.776;2023-09-30T13:00:14;4.32;;;1.80;;
10653;SDS011;5375;51.250;6.776;2023-09-30T13:02:41;2.10;;;1.65;;
10653;SDS011;5375;51.250;6.776;2023-09-30T13:05:08;3.40;;;1.50;;
10653;SDS011;5375;51.250;6.776;2023-09-30T13:07:34;3.05;;;1.60;;
10653;SDS011;5375;51.250;6.776;2023-09-30T13:10:00;4.10;;;1.85;;
10653;SDS011;5375;51.250;6.776;2023-09-30T13:12:30;2.65;;;1.60;;
10653;SDS011;5375;51.250;6.776;2023-09-30T13:14:58;3.05;;;1.60;;
10653;SDS011;5375;51.250;6.776;2023-09-30T13:17:27;3.85;;;1.80;;
10653;SDS011;5375;51.250;6.776;2023-09-30T13:19:53;5.97;;;1.70;;
10653;SDS011;5375;51.250;6.776;2023-09-30T13:22:20;3.03;;;1.55;;
10653;SDS011;5375;51.250;6.776;2023-09-30T13:24:46;2.95;;;1.55;;
10653;SDS011;5375;51.250;6.776;2023-09-30T13:27:16;3.83;;;1.67;;
10653;SDS011;5375;51.250;6.776;2023-09-30T13:29:43;6.05;;;1.98;;
10653;SDS011;5375;51.250;6.776;2023-09-30T13:32:10;2.38;;;1.60;;
10653;SDS011;5375;51.250;6.776;2023-09-30T13:34:37;3.20;;;1.60;;
10653;SDS011;5375;51.250;6.776;2023-09-30T13:37:03;3.90;;;1.50;;
10653;SDS011;5375;51.250;6.776;2023-09-30T13:39:29;2.55;;;1.50;;
10653;SDS011;5375;51.250;6.776;2023-09-30T13:41:56;3.38;;;1.80;;
10653;SDS011;5375;51.250;6.776;2023-09-30T13:44:24;2.53;;;1.70;;
10653;SDS011;5375;51.250;6.776;2023-09-30T13:46:50;4.38;;;1.42;;
10653;SDS011;5375;51.250;6.776;2023-09-30T13:49:16;2.20;;;1.60;;
10653;SDS011;5375;51.250;6.776;2023-09-30T13:51:42;4.50;;;1.42;;
10653;SDS011;5375;51.250;6.776;2023-09-30T13:54:08;1.98;;;1.48;;
10653;SDS011;5375;51.250;6.776;2023-09-30T13:56:34;1.90;;;1.42;;
10653;SDS011;5375;51.250;6.776;2023-09-30T13:59:00;5.00;;;1.50;;
10653;SDS011;5375;51.250;6.776;2023-09-30T14:01:26;9.40;;;1.60;;
10653;SDS011;5375;51.250;6.776;2023-09-30T14:03:52;3.42;;;1.45;;
10653;SDS011;5375;51.250;6.776;2023-09-30T14:06:21;2.17;;;1.40;;
10653;SDS011;5375;51.250;6.776;2023-09-30T14:08:47;2.33;;;1.48;;
10653;SDS011;5375;51.250;6.776;2023-09-30T14:11:16;2.05;;;1.48;;
10653;SDS011;5375;51.250;6.776;2023-09-30T14:13:44;2.67;;;1.60;;
10653;SDS011;5375;51.250;6.776;2023-09-30T14:16:11;3.25;;;1.48;;
10653;SDS011;5375;51.250;6.776;2023-09-30T14:18:37;2.65;;;1.33;;
10653;SDS011;5375;51.250;6.776;2023-09-30T14:21:04;2.33;;;1.40;;
10653;SDS011;5375;51.250;6.776;2023-09-30T14:23:31;2.08;;;1.48;;
10653;SDS011;5375;51.250;6.776;2023-09-30T14:25:57;3.58;;;1.52;;
10653;SDS011;5375;51.250;6.776;2023-09-30T14:28:24;2.35;;;1.70;;
10653;SDS011;5375;51.250;6.776;2023-09-30T14:30:50;2.90;;;1.33;;
10653;SDS011;5375;51.250;6.776;2023-09-30T14:33:17;2.72;;;1.40;;
10653;SDS011;5375;51.250;6.776;2023-09-30T14:35:44;2.25;;;1.23;;
10653;SDS011;5375;51.250;6.776;2023-09-30T14:38:10;3.30;;;1.60;;
10653;SDS011;5375;51.250;6.776;2023-09-30T14:40:39;2.60;;;1.52;;
10653;SDS011;5375;51.250;6.776;2023-09-30T14:43:09;3.53;;;1.67;;
10653;SDS011;5375;51.250;6.776;2023-09-30T14:45:38;2.65;;;1.63;;
10653;SDS011;5375;51.250;6.776;2023-09-30T14:48:05;2.83;;;1.60;;
10653;SDS011;5375;51.250;6.776;2023-09-30T14:50:31;1.88;;;1.40;;
10653;SDS011;5375;51.250;6.776;2023-09-30T14:52:58;4.80;;;1.50;;
10653;SDS011;5375;51.250;6.776;2023-09-30T14:55:24;2.08;;;1.38;;
10653;SDS011;5375;51.250;6.776;2023-09-30T14:57:50;3.03;;;1.42;;
10653;SDS011;5375;51.250;6.776;2023-09-30T15:00:16;3.50;;;1.65;;
10653;SDS011;5375;51.250;6.776;2023-09-30T15:02:42;2.65;;;1.45;;
10653;SDS011;5375;51.250;6.776;2023-09-30T15:05:08;3.08;;;1.65;;
10653;SDS011;5375;51.250;6.776;2023-09-30T15:07:34;4.32;;;1.67;;
10653;SDS011;5375;51.250;6.776;2023-09-30T15:10:04;2.47;;;1.55;;
10653;SDS011;5375;51.250;6.776;2023-09-30T15:12:30;2.20;;;1.52;;
10653;SDS011;5375;51.250;6.776;2023-09-30T15:14:56;2.70;;;1.45;;
10653;SDS011;5375;51.250;6.776;2023-09-30T15:17:22;1.75;;;1.20;;
10653;SDS011;5375;51.250;6.776;2023-09-30T15:19:48;2.47;;;1.40;;
10653;SDS011;5375;51.250;6.776;2023-09-30T15:22:14;1.92;;;1.30;;
10653;SDS011;5375;51.250;6.776;2023-09-30T15:24:41;2.42;;;1.30;;